createdAt,value
2023-04-02T05:03:16.431Z,8.30
2023-04-02T05:05:47.766Z,7.43
2023-04-02T05:08:30.483Z,8.82
2023-04-02T05:11:11.558Z,8.80
2023-04-02T05:13:53.416Z,8.38
2023-04-02T05:16:38.546Z,8.38
2023-04-02T05:19:15.573Z,8.30
2023-04-02T05:21:58.521Z,8.32
2023-04-02T05:24:56.590Z,8.85
2023-04-02T05:27:39.622Z,7.88
2023-04-02T05:30:28.490Z,7.65
2023-04-02T05:33:05.608Z,7.20
2023-04-02T05:35:50.639Z,6.50
2023-04-02T05:38:24.688Z,6.50
2023-04-02T05:41:10.571Z,6.45
2023-04-02T05:43:43.018Z,5.95
2023-04-02T05:46:27.527Z,5.90
2023-04-02T05:49:08.580Z,5.80
2023-04-02T05:51:48.064Z,5.60
2023-04-02T05:54:32.576Z,5.70
2023-04-02T05:57:10.018Z,5.07
2023-04-02T05:59:51.494Z,5.32
2023-04-02T06:02:34.617Z,5.13
2023-04-02T06:05:08.936Z,5.00
2023-04-02T06:07:57.527Z,4.88
2023-04-02T06:10:32.680Z,5.47
2023-04-02T06:13:15.542Z,5.63
2023-04-02T06:15:47.671Z,4.90
2023-04-02T06:18:28.510Z,5.03
2023-04-02T06:21:05.609Z,4.90
2023-04-02T06:23:43.697Z,5.00
2023-04-02T06:26:29.555Z,4.78
2023-04-02T06:29:07.123Z,5.35
2023-04-02T06:31:50.588Z,4.50
2023-04-02T06:34:24.131Z,5.38
2023-04-02T06:37:06.558Z,4.90
2023-04-02T06:39:45.585Z,5.63
2023-04-02T06:42:21.026Z,5.38
2023-04-02T06:44:58.581Z,4.82
2023-04-02T06:47:36.921Z,5.30
2023-04-02T06:50:23.574Z,5.05
2023-04-02T06:52:57.749Z,4.45
2023-04-02T06:55:49.575Z,5.40
2023-04-02T06:58:28.653Z,5.72
2023-04-02T07:00:59.674Z,5.32
2023-04-02T07:03:40.599Z,5.23
2023-04-02T07:06:18.694Z,5.28
2023-04-02T07:08:55.581Z,5.85
2023-04-02T07:11:28.368Z,6.22
2023-04-02T07:14:05.693Z,5.68
2023-04-02T07:16:37.407Z,6.30
2023-04-02T07:19:14.637Z,5.07
2023-04-02T07:21:51.663Z,5.45
2023-04-02T07:24:21.898Z,6.05
2023-04-02T07:27:01.686Z,6.03
2023-04-02T07:29:38.747Z,6.55
2023-04-02T07:32:09.671Z,5.80
2023-04-02T07:34:46.690Z,6.20
2023-04-02T07:37:18.394Z,5.45
2023-04-02T07:39:55.738Z,5.90
2023-04-02T07:42:34.600Z,6.15
2023-04-02T07:45:06.107Z,5.72
2023-04-02T07:47:42.639Z,6.20
2023-04-02T07:50:17.242Z,6.18
2023-04-02T07:52:53.706Z,5.60
2023-04-02T07:55:23.886Z,5.75
2023-04-02T07:58:05.802Z,5.55
2023-04-02T08:00:42.673Z,4.85
2023-04-02T08:03:16.634Z,5.15
2023-04-02T08:05:58.704Z,5.60
2023-04-02T08:11:05.711Z,4.60
2023-04-02T08:13:39.076Z,5.38
2023-04-02T08:16:17.701Z,5.07
2023-04-02T08:18:48.236Z,4.80
2023-04-02T08:21:24.782Z,4.28
2023-04-02T08:23:54.982Z,4.80
2023-04-02T08:26:31.686Z,4.68
2023-04-02T08:29:10.753Z,4.22
2023-04-02T08:31:40.997Z,4.20
2023-04-02T08:34:17.722Z,3.78
2023-04-02T08:36:48.483Z,4.13
2023-04-02T08:39:24.699Z,3.85
2023-04-02T08:42:06.730Z,4.10
2023-04-02T08:47:33.732Z,4.32
2023-04-02T08:50:14.740Z,4.45
2023-04-02T08:52:45.083Z,4.57
2023-04-02T08:55:36.892Z,4.28
2023-04-02T08:58:24.310Z,4.15
2023-04-02T09:01:06.713Z,4.00
2023-04-02T09:03:43.080Z,4.60
2023-04-02T09:06:27.773Z,4.60
2023-04-02T09:09:00.487Z,4.45
2023-04-02T09:11:45.803Z,4.43
2023-04-02T09:14:21.497Z,4.72
2023-04-02T09:17:04.820Z,5.22
2023-04-02T09:19:39.121Z,5.10
2023-04-02T09:22:18.763Z,5.30
2023-04-02T09:24:53.637Z,5.18
2023-04-02T09:27:33.862Z,5.50
2023-04-02T09:30:13.968Z,6.13
2023-04-02T09:32:59.798Z,6.43
2023-04-02T09:35:41.148Z,5.80
2023-04-02T09:38:22.446Z,4.50
2023-04-02T09:41:05.813Z,6.17
2023-04-02T09:43:38.403Z,5.97
2023-04-02T09:46:33.892Z,5.55
2023-04-02T09:49:13.792Z,6.30
2023-04-02T09:51:43.967Z,4.70
2023-04-02T09:54:25.820Z,4.50
2023-04-02T09:57:05.097Z,3.65
2023-04-02T09:59:41.861Z,3.80
2023-04-02T10:02:31.277Z,3.50
2023-04-02T10:05:20.919Z,3.45
2023-04-02T10:08:11.053Z,2.83
2023-04-02T10:10:52.995Z,3.00
2023-04-02T10:13:30.498Z,2.80
2023-04-02T10:16:13.968Z,2.88
2023-04-02T10:18:49.942Z,2.60
2023-04-02T10:21:34.878Z,2.58
2023-04-02T10:24:11.865Z,2.50
2023-04-02T10:27:08.930Z,2.50
2023-04-02T10:30:17.089Z,2.33
2023-04-02T10:33:00.942Z,2.35
2023-04-02T10:35:57.938Z,2.63
2023-04-02T10:38:52.886Z,2.67
2023-04-02T10:41:35.666Z,2.60
2023-04-02T10:44:48.855Z,2.22
2023-04-02T10:47:38.904Z,2.50
2023-04-02T10:50:40.906Z,2.50
2023-04-02T10:53:18.078Z,2.47
2023-04-02T10:56:01.940Z,2.40
2023-04-02T10:58:37.969Z,3.10
2023-04-02T11:01:23.945Z,2.38
2023-04-02T11:04:00.235Z,2.60
2023-04-02T11:06:44.141Z,3.08
2023-04-02T11:09:22.044Z,2.55
2023-04-02T11:12:05.080Z,2.78
2023-04-02T11:14:36.777Z,2.03
2023-04-02T11:17:13.946Z,2.50
2023-04-02T11:19:44.402Z,2.45
2023-04-02T11:22:26.000Z,2.30
2023-04-02T11:24:57.528Z,2.58
2023-04-02T11:27:40.044Z,2.30
2023-04-02T11:30:25.805Z,2.47
2023-04-02T11:33:04.026Z,2.15
2023-04-02T11:35:48.974Z,2.13
2023-04-02T11:38:54.939Z,2.25
2023-04-02T11:42:12.043Z,2.22
2023-04-02T11:44:44.790Z,2.03
2023-04-02T11:47:28.003Z,2.13
2023-04-02T11:50:08.930Z,2.20
2023-04-02T11:53:00.027Z,2.20
2023-04-02T11:55:35.529Z,2.15
2023-04-02T11:58:40.984Z,2.13
2023-04-02T12:01:57.039Z,1.83
2023-04-02T12:05:27.066Z,2.05
2023-04-02T12:08:29.566Z,1.95
2023-04-02T12:11:10.014Z,2.08
2023-04-02T12:14:05.068Z,14.48
2023-04-02T12:16:40.724Z,2.42
2023-04-02T12:19:19.079Z,4.75
2023-04-02T12:21:50.161Z,3.85
2023-04-02T12:24:30.995Z,2.20
2023-04-02T12:27:22.948Z,1.98
2023-04-02T12:30:01.300Z,2.00
2023-04-02T12:32:36.451Z,2.08
2023-04-02T12:35:15.041Z,1.90
2023-04-02T12:37:45.280Z,2.85
2023-04-02T12:40:28.021Z,2.08
2023-04-02T12:43:05.045Z,2.08
2023-04-02T12:45:37.002Z,2.00
2023-04-02T12:50:46.697Z,2.08
2023-04-02T12:53:32.076Z,2.20
2023-04-02T12:56:09.058Z,1.83
2023-04-02T12:58:42.799Z,2.03
2023-04-02T13:01:25.097Z,2.38
